createdAt,value
2018-02-01T00:01:42.585Z,94.20
2018-02-01T00:04:10.093Z,93.90
2018-02-01T00:06:37.582Z,94.20
2018-02-01T00:09:05.493Z,94.00
2018-02-01T00:11:32.986Z,94.00
2018-02-01T00:14:00.506Z,93.40
2018-02-01T00:16:28.394Z,93.50
2018-02-01T00:18:55.917Z,93.60
2018-02-01T00:21:23.410Z,93.60
2018-02-01T00:23:50.989Z,93.40
2018-02-01T00:26:18.894Z,93.00
2018-02-01T00:28:46.389Z,93.20
2018-02-01T00:31:13.902Z,92.80
2018-02-01T00:33:41.393Z,92.60
2018-02-01T00:36:09.297Z,92.60
2018-02-01T00:38:36.789Z,92.50
2018-02-01T00:41:04.328Z,92.50
2018-02-01T00:43:31.802Z,92.90
2018-02-01T00:45:59.288Z,93.00
2018-02-01T00:48:26.794Z,92.70
2018-02-01T00:50:54.388Z,93.30
2018-02-01T00:53:22.238Z,94.00
2018-02-01T00:55:49.731Z,93.50
2018-02-01T00:58:17.303Z,93.40
2018-02-01T01:00:44.871Z,93.70
2018-02-01T01:03:12.372Z,93.90
2018-02-01T01:05:39.846Z,93.40
2018-02-01T01:08:07.356Z,93.10
2018-02-01T01:10:34.840Z,93.70
2018-02-01T01:13:02.332Z,93.70
2018-02-01T01:15:30.230Z,93.50
2018-02-01T01:17:57.712Z,93.40
2018-02-01T01:20:25.212Z,93.80
2018-02-01T01:22:52.692Z,93.50
2018-02-01T01:25:20.192Z,93.90
2018-02-01T01:27:47.670Z,94.00
2018-02-01T01:30:15.565Z,93.50
2018-02-01T01:32:43.102Z,93.50
2018-02-01T01:35:10.604Z,93.40
2018-02-01T01:37:38.152Z,93.80
2018-02-01T01:40:05.657Z,93.90
2018-02-01T01:42:33.135Z,94.30
2018-02-01T01:45:00.638Z,93.80
2018-02-01T01:47:28.139Z,93.80
2018-02-01T01:49:56.115Z,93.70
2018-02-01T01:52:23.688Z,93.70
2018-02-01T01:54:51.172Z,93.90
2018-02-01T01:57:19.071Z,93.50
2018-02-01T01:59:46.574Z,93.50
2018-02-01T02:02:14.108Z,93.80
2018-02-01T02:04:41.595Z,93.50
2018-02-01T02:07:09.096Z,93.50
2018-02-01T02:09:36.580Z,93.90
2018-02-01T02:12:04.163Z,93.90
2018-02-01T02:14:31.640Z,94.30
2018-02-01T02:16:59.620Z,93.60
2018-02-01T02:19:27.600Z,93.70
2018-02-01T02:21:55.096Z,93.70
2018-02-01T02:24:22.573Z,93.20
2018-02-01T02:26:50.068Z,93.40
2018-02-01T02:29:17.552Z,93.80
2018-02-01T02:31:45.151Z,93.50
2018-02-01T02:34:12.627Z,93.20
2018-02-01T02:36:40.142Z,92.90
2018-02-01T02:39:07.665Z,92.50
2018-02-01T02:41:35.138Z,93.00
2018-02-01T02:44:03.125Z,92.80
2018-02-01T02:46:31.000Z,92.50
2018-02-01T02:48:58.495Z,92.50
2018-02-01T02:51:25.982Z,92.30
2018-02-01T02:53:53.483Z,92.50
2018-02-01T02:56:20.964Z,92.70
2018-02-01T02:58:48.464Z,92.60
2018-02-01T03:01:16.432Z,92.00
2018-02-01T03:03:43.929Z,92.00
2018-02-01T03:06:11.407Z,92.30
2018-02-01T03:08:38.904Z,92.30
2018-02-01T03:11:06.379Z,91.50
2018-02-01T03:13:33.888Z,92.10
2018-02-01T03:16:01.456Z,91.80
2018-02-01T03:18:29.032Z,92.00
2018-02-01T03:20:56.605Z,92.10
2018-02-01T03:23:24.099Z,92.10
2018-02-01T03:25:51.570Z,92.50
2018-02-01T03:28:19.058Z,92.00
2018-02-01T03:30:46.540Z,91.80
2018-02-01T03:33:14.060Z,91.70
2018-02-01T03:35:42.027Z,91.80
2018-02-01T03:38:09.602Z,91.80
2018-02-01T03:40:37.185Z,91.60
2018-02-01T03:43:05.077Z,91.50
2018-02-01T03:45:32.951Z,91.70
2018-02-01T03:48:00.836Z,91.40
2018-02-01T03:50:28.805Z,90.80
2018-02-01T03:52:56.376Z,90.80
2018-02-01T03:55:23.859Z,91.10
2018-02-01T03:57:51.748Z,91.00
2018-02-01T04:00:19.623Z,91.10
2018-02-01T04:02:47.501Z,90.70
2018-02-01T04:05:15.472Z,91.10
2018-02-01T04:07:43.347Z,91.70
2018-02-01T04:10:10.848Z,91.70
2018-02-01T04:12:38.391Z,91.10
2018-02-01T04:15:06.266Z,91.10
2018-02-01T04:17:33.746Z,91.10
2018-02-01T04:20:01.710Z,90.80
2018-02-01T04:22:29.191Z,90.80
2018-02-01T04:24:56.685Z,90.70
2018-02-01T04:27:24.227Z,90.90
2018-02-01T04:29:51.732Z,90.70
2018-02-01T04:32:19.208Z,90.90
2018-02-01T04:34:46.738Z,90.20
2018-02-01T04:37:14.206Z,90.60
2018-02-01T04:39:41.815Z,90.60
2018-02-01T04:42:09.285Z,91.30
2018-02-01T04:44:36.776Z,91.10
2018-02-01T04:47:04.255Z,90.80
2018-02-01T04:49:31.749Z,90.60
2018-02-01T04:51:59.264Z,90.70
2018-02-01T04:54:26.803Z,90.30
2018-02-01T04:56:54.383Z,90.60
2018-02-01T04:59:21.876Z,91.10
2018-02-01T05:01:49.742Z,91.00
2018-02-01T05:04:17.628Z,91.20
2018-02-01T05:06:45.495Z,91.00
2018-02-01T05:09:13.068Z,91.00
2018-02-01T05:11:40.539Z,91.10
2018-02-01T05:14:08.515Z,91.20
2018-02-01T05:16:35.987Z,91.20
2018-02-01T05:19:03.484Z,91.20
2018-02-01T05:21:30.960Z,91.60
2018-02-01T05:23:58.495Z,91.30
2018-02-01T05:26:25.980Z,91.40
2018-02-01T05:28:53.847Z,92.00
2018-02-01T05:31:21.344Z,92.00
2018-02-01T05:33:48.892Z,92.10
2018-02-01T05:36:16.463Z,92.10
2018-02-01T05:38:43.934Z,92.00
2018-02-01T05:41:11.832Z,92.10
2018-02-01T05:43:39.309Z,92.10
2018-02-01T05:46:06.814Z,92.20
2018-02-01T05:48:34.291Z,91.70
2018-02-01T05:51:01.890Z,91.40
2018-02-01T05:53:29.375Z,91.50
2018-02-01T05:55:57.269Z,91.00
2018-02-01T05:58:25.140Z,90.90
2018-02-01T06:00:53.284Z,90.90
2018-02-01T06:03:20.760Z,90.90
2018-02-01T06:05:48.261Z,91.30
2018-02-01T06:08:16.140Z,91.70
2018-02-01T06:10:44.024Z,92.30
2018-02-01T06:13:11.891Z,92.30
2018-02-01T06:15:39.460Z,92.30
2018-02-01T06:18:06.939Z,91.60
2018-02-01T06:20:34.916Z,92.00
2018-02-01T06:23:02.396Z,92.00
2018-02-01T06:25:30.282Z,90.80
2018-02-01T06:27:58.171Z,91.20
2018-02-01T06:30:25.659Z,91.30
2018-02-01T06:32:53.150Z,91.70
2018-02-01T06:35:20.652Z,90.80
2018-02-01T06:37:48.132Z,90.90
2018-02-01T06:40:16.016Z,90.80
2018-02-01T06:42:43.888Z,90.40
2018-02-01T06:45:11.384Z,90.40
2018-02-01T06:47:38.852Z,91.50
2018-02-01T06:50:06.344Z,88.20
2018-02-01T06:52:33.816Z,83.80
2018-02-01T06:55:01.339Z,84.60
2018-02-01T06:57:28.827Z,86.20
2018-02-01T06:59:56.786Z,99.90
2018-02-01T07:02:24.280Z,99.90
2018-02-01T07:04:52.151Z,78.80
2018-02-01T07:07:20.048Z,81.70
2018-02-01T07:09:47.519Z,81.70
2018-02-01T07:12:15.027Z,83.10
2018-02-01T07:14:42.536Z,84.60
2018-02-01T07:17:10.428Z,86.70
2018-02-01T07:19:38.303Z,87.70
2018-02-01T07:22:06.227Z,87.50
2018-02-01T07:24:33.680Z,87.50
2018-02-01T07:27:01.214Z,87.00
2018-02-01T07:29:28.693Z,94.10
2018-02-01T07:31:56.588Z,71.40
2018-02-01T07:34:24.071Z,71.40
2018-02-01T07:36:51.569Z,75.00
2018-02-01T07:39:19.073Z,77.90
2018-02-01T07:41:46.575Z,80.10
2018-02-01T07:44:14.057Z,82.30
2018-02-01T07:46:42.344Z,84.00
2018-02-01T07:49:09.820Z,84.50
2018-02-01T07:51:37.316Z,84.90
2018-02-01T07:54:04.806Z,85.30
2018-02-01T07:56:32.291Z,86.50
2018-02-01T07:59:00.155Z,93.70
2018-02-01T08:01:28.064Z,84.90
2018-02-01T08:03:55.935Z,85.40
2018-02-01T08:06:23.819Z,85.90
2018-02-01T08:08:51.322Z,85.80
2018-02-01T08:11:18.817Z,86.40
2018-02-01T08:13:46.287Z,87.60
2018-02-01T08:16:13.784Z,88.60
2018-02-01T08:18:41.259Z,89.20
2018-02-01T08:21:08.730Z,89.90
2018-02-01T08:23:36.621Z,89.60
2018-02-01T08:26:04.486Z,89.20
2018-02-01T08:28:32.055Z,89.20
2018-02-01T08:30:59.526Z,89.00
2018-02-01T08:33:27.023Z,88.90
2018-02-01T08:35:54.498Z,88.10
2018-02-01T08:38:21.992Z,87.10
2018-02-01T08:40:49.467Z,86.50
2018-02-01T08:43:16.964Z,87.00
2018-02-01T08:45:44.556Z,85.80
2018-02-01T08:48:12.527Z,85.50
2018-02-01T08:50:39.998Z,85.50
2018-02-01T08:53:07.572Z,85.60
2018-02-01T08:55:35.047Z,85.10
2018-02-01T08:58:02.590Z,85.30
2018-02-01T09:00:30.069Z,86.10
2018-02-01T09:02:57.558Z,86.10
2018-02-01T09:05:25.031Z,86.70
2018-02-01T09:07:52.929Z,86.70
2018-02-01T09:10:20.413Z,86.70
2018-02-01T09:12:47.952Z,85.80
2018-02-01T09:15:15.819Z,85.50
2018-02-01T09:17:43.394Z,85.50
2018-02-01T09:20:10.880Z,85.10
2018-02-01T09:22:38.785Z,83.20
2018-02-01T09:25:06.269Z,83.20
2018-02-01T09:27:33.774Z,82.80
2018-02-01T09:30:01.242Z,83.00
2018-02-01T09:32:28.832Z,83.00
2018-02-01T09:34:56.323Z,82.20
2018-02-01T09:37:24.221Z,79.40
2018-02-01T09:39:51.696Z,79.40
2018-02-01T09:42:19.192Z,80.30
2018-02-01T09:44:46.697Z,80.20
2018-02-01T09:47:14.272Z,79.70
2018-02-01T09:49:42.248Z,80.40
2018-02-01T09:52:09.728Z,80.40
2018-02-01T09:54:37.610Z,82.80
2018-02-01T09:57:05.480Z,70.70
2018-02-01T09:59:33.372Z,72.50
2018-02-01T10:02:01.248Z,72.80
2018-02-01T10:04:29.146Z,75.30
2018-02-01T10:06:56.693Z,75.30
2018-02-01T10:09:24.178Z,77.30
2018-02-01T10:11:52.052Z,77.80
2018-02-01T10:14:19.936Z,76.80
2018-02-01T10:16:47.804Z,77.70
2018-02-01T10:19:15.701Z,76.60
2018-02-01T10:21:43.655Z,75.80
2018-02-01T10:24:11.147Z,75.70
2018-02-01T10:26:39.028Z,75.20
2018-02-01T10:29:06.911Z,74.70
2018-02-01T10:31:34.784Z,75.30
2018-02-01T10:34:02.784Z,74.50
2018-02-01T10:36:30.320Z,74.50
2018-02-01T10:38:57.821Z,75.10
2018-02-01T10:41:25.295Z,74.90
2018-02-01T10:43:52.826Z,72.60
2018-02-01T10:46:20.404Z,74.20
2018-02-01T10:48:47.894Z,73.90
2018-02-01T10:51:15.368Z,75.20
2018-02-01T10:53:43.277Z,76.20
2018-02-01T10:56:10.790Z,76.20
2018-02-01T10:58:38.284Z,77.10
2018-02-01T11:01:06.152Z,76.20
2018-02-01T11:03:34.046Z,75.60
2018-02-01T11:06:01.923Z,76.60
2018-02-01T11:08:29.797Z,76.30
2018-02-01T11:10:57.774Z,75.70
2018-02-01T11:13:25.265Z,75.70
2018-02-01T11:15:52.776Z,75.70
2018-02-01T11:18:20.260Z,82.40
2018-02-01T11:20:47.758Z,69.60
2018-02-01T11:23:15.733Z,71.90
2018-02-01T11:25:43.228Z,71.90
2018-02-01T11:28:10.776Z,71.80
2018-02-01T11:30:38.267Z,73.50
2018-02-01T11:33:06.223Z,75.20
2018-02-01T11:35:33.792Z,75.20
2018-02-01T11:38:01.368Z,72.70
2018-02-01T11:40:28.858Z,73.90
2018-02-01T11:42:56.764Z,74.70
2018-02-01T11:45:24.252Z,74.70
2018-02-01T11:47:51.731Z,75.10
2018-02-01T11:50:19.237Z,75.60
2018-02-01T11:52:46.719Z,74.50
2018-02-01T11:55:14.603Z,74.90
2018-02-01T11:57:42.563Z,74.40
2018-02-01T12:00:10.064Z,74.30
2018-02-01T12:02:37.538Z,75.20
2018-02-01T12:05:05.080Z,74.00
2018-02-01T12:07:32.556Z,73.00
2018-02-01T12:10:00.448Z,72.80
2018-02-01T12:12:28.320Z,73.60
2018-02-01T12:14:56.208Z,73.30
2018-02-01T12:17:24.167Z,73.10
2018-02-01T12:19:51.744Z,73.10
2018-02-01T12:22:19.228Z,73.50
2018-02-01T12:24:47.222Z,74.10
2018-02-01T12:27:14.770Z,74.10
2018-02-01T12:29:42.335Z,73.70
2018-02-01T12:32:09.803Z,73.30
2018-02-01T12:34:37.291Z,73.30
2018-02-01T12:37:05.257Z,73.30
2018-02-01T12:39:32.736Z,73.30
2018-02-01T12:42:00.621Z,73.10
2018-02-01T12:44:28.501Z,72.90
2018-02-01T12:46:56.379Z,74.30
2018-02-01T12:49:24.256Z,74.20
2018-02-01T12:51:52.227Z,72.70
2018-02-01T12:54:19.699Z,72.70
2018-02-01T12:56:47.191Z,73.10
2018-02-01T12:59:15.050Z,75.10
2018-02-01T13:01:42.538Z,75.10
2018-02-01T13:04:10.413Z,75.00
2018-02-01T13:06:38.384Z,75.50
2018-02-01T13:09:05.860Z,75.50
2018-02-01T13:11:33.832Z,75.10
2018-02-01T13:14:01.404Z,75.10
2018-02-01T13:16:28.896Z,75.20
2018-02-01T13:18:56.454Z,75.60
2018-02-01T13:21:24.360Z,75.00
2018-02-01T13:23:51.832Z,75.00
2018-02-01T13:26:19.364Z,75.90
2018-02-01T13:28:46.844Z,75.90
2018-02-01T13:31:14.823Z,74.10
2018-02-01T13:33:42.308Z,74.10
2018-02-01T13:36:10.208Z,77.20
2018-02-01T13:38:37.692Z,77.20
2018-02-01T13:41:05.179Z,77.50
2018-02-01T13:43:32.661Z,77.90
2018-02-01T13:46:00.151Z,78.20
2018-02-01T13:48:27.656Z,78.50
2018-02-01T13:50:55.190Z,79.20
2018-02-01T13:53:22.664Z,78.90
2018-02-01T13:55:50.265Z,78.30
2018-02-01T13:58:17.740Z,79.10
2018-02-01T14:00:45.216Z,79.10
2018-02-01T14:03:12.747Z,79.60
2018-02-01T14:05:40.218Z,79.40
2018-02-01T14:08:07.797Z,79.70
2018-02-01T14:10:35.276Z,79.30
2018-02-01T14:13:03.164Z,78.40
2018-02-01T14:15:31.041Z,77.00
2018-02-01T14:17:58.928Z,79.90
2018-02-01T14:20:26.471Z,80.00
2018-02-01T14:22:55.188Z,72.90
2018-02-01T14:25:23.068Z,74.90
2018-02-01T14:27:50.956Z,76.90
2018-02-01T14:30:18.465Z,76.90
2018-02-01T14:32:45.960Z,78.80
2018-02-01T14:35:13.431Z,79.10
2018-02-01T14:37:40.929Z,80.30
2018-02-01T14:40:08.494Z,80.60
2018-02-01T14:42:36.384Z,81.70
2018-02-01T14:45:04.260Z,81.80
2018-02-01T14:47:32.236Z,82.00
2018-02-01T14:50:00.213Z,82.30
2018-02-01T14:52:28.111Z,83.00
2018-02-01T14:54:55.983Z,83.00
2018-02-01T14:57:23.964Z,83.90
2018-02-01T14:59:51.468Z,83.90
2018-02-01T15:02:18.963Z,84.80
2018-02-01T15:04:46.460Z,86.30
2018-02-01T15:07:13.952Z,87.90
2018-02-01T15:09:41.912Z,90.00
2018-02-01T15:12:09.403Z,90.00
2018-02-01T15:14:37.293Z,90.40
2018-02-01T15:17:04.901Z,90.40
2018-02-01T15:19:32.385Z,90.60
2018-02-01T15:21:59.980Z,91.10
2018-02-01T15:24:27.472Z,91.80
2018-02-01T15:26:55.091Z,91.10
2018-02-01T15:29:22.584Z,91.30
2018-02-01T15:31:50.404Z,91.30
2018-02-01T15:34:17.918Z,91.60
2018-02-01T15:36:45.484Z,91.50
2018-02-01T15:39:12.974Z,91.90
2018-02-01T15:41:40.693Z,92.70
2018-02-01T15:44:08.183Z,92.40
2018-02-01T15:46:35.839Z,93.60
2018-02-01T15:49:03.364Z,93.50
2018-02-01T15:51:30.856Z,93.90
2018-02-01T15:53:58.837Z,94.30
2018-02-01T15:56:26.948Z,95.20
2018-02-01T15:58:54.491Z,95.20
2018-02-01T16:01:22.062Z,95.50
2018-02-01T16:03:49.967Z,95.30
2018-02-01T16:06:17.856Z,95.30
2018-02-01T16:08:45.396Z,95.30
2018-02-01T16:11:12.920Z,95.50
2018-02-01T16:13:40.440Z,95.10
2018-02-01T16:16:08.090Z,95.10
2018-02-01T16:18:35.593Z,95.20
2018-02-01T16:21:03.675Z,95.40
2018-02-01T16:23:31.568Z,95.00
2018-02-01T16:25:59.277Z,95.00
2018-02-01T16:28:26.776Z,94.90
2018-02-01T16:30:54.536Z,94.40
2018-02-01T16:33:22.034Z,94.70
2018-02-01T16:35:49.666Z,94.80
2018-02-01T16:38:17.178Z,94.70
2018-02-01T16:40:44.889Z,94.50
2018-02-01T16:43:12.433Z,94.60
2018-02-01T16:45:40.072Z,94.20
2018-02-01T16:48:07.581Z,94.80
2018-02-01T16:50:35.542Z,94.40
2018-02-01T16:53:03.029Z,94.40
2018-02-01T16:55:30.832Z,94.20
2018-02-01T16:57:58.352Z,93.70
2018-02-01T17:00:26.009Z,93.40
2018-02-01T17:02:53.490Z,93.20
2018-02-01T17:05:21.013Z,93.50
2018-02-01T17:07:48.886Z,93.00
2018-02-01T17:10:16.876Z,93.00
2018-02-01T17:12:44.454Z,93.00
2018-02-01T17:15:12.092Z,92.80
2018-02-01T17:17:39.575Z,92.40
2018-02-01T17:20:07.166Z,92.40
2018-02-01T17:22:35.137Z,92.10
2018-02-01T17:25:03.149Z,91.10
2018-02-01T17:27:30.632Z,91.10
2018-02-01T17:29:58.243Z,91.00
2018-02-01T17:32:25.724Z,91.50
2018-02-01T17:34:53.379Z,91.00
2018-02-01T17:37:20.963Z,91.60
2018-02-01T17:39:48.604Z,91.10
2018-02-01T17:42:16.083Z,91.00
2018-02-01T17:44:43.824Z,91.30
2018-02-01T17:47:11.308Z,90.90
2018-02-01T17:49:38.891Z,90.90
2018-02-01T17:52:06.377Z,90.90
2018-02-01T17:54:34.006Z,90.70
2018-02-01T17:57:01.529Z,90.70
2018-02-01T17:59:29.250Z,91.00
2018-02-01T18:01:56.732Z,90.50
2018-02-01T18:04:24.234Z,90.90
2018-02-01T18:06:51.852Z,90.70
2018-02-01T18:09:19.849Z,90.60
2018-02-01T18:11:47.396Z,90.60
2018-02-01T18:14:14.994Z,90.60
2018-02-01T18:16:42.537Z,90.80
2018-02-01T18:19:10.114Z,90.60
2018-02-01T18:21:38.029Z,90.40
2018-02-01T18:24:05.591Z,90.50
2018-02-01T18:26:33.112Z,90.60
2018-02-01T18:29:00.597Z,90.10
2018-02-01T18:31:28.112Z,90.00
2018-02-01T18:33:55.612Z,90.40
2018-02-01T18:36:23.132Z,90.60
2018-02-01T18:38:51.012Z,89.90
2018-02-01T18:41:18.980Z,89.80
2018-02-01T18:43:46.464Z,89.80
2018-02-01T18:46:14.461Z,90.80
2018-02-01T18:48:42.004Z,90.80
2018-02-01T18:51:09.504Z,91.20
2018-02-01T18:53:36.983Z,90.50
2018-02-01T18:56:04.530Z,90.80
2018-02-01T18:58:32.078Z,91.40
2018-02-01T19:00:59.685Z,90.90
2018-02-01T19:03:27.175Z,90.90
2018-02-01T19:05:54.672Z,90.60
2018-02-01T19:08:22.176Z,90.70
2018-02-01T19:10:50.076Z,90.80
2018-02-01T19:13:17.951Z,90.70
2018-02-01T19:15:45.461Z,90.60
2018-02-01T19:18:12.975Z,91.00
2018-02-01T19:20:40.475Z,90.90
2018-02-01T19:23:07.956Z,91.00
2018-02-01T19:25:35.488Z,91.60
2018-02-01T19:28:02.977Z,91.20
2018-02-01T19:30:30.940Z,91.10
2018-02-01T19:32:58.820Z,91.00
2018-02-01T19:35:26.724Z,91.10
2018-02-01T19:37:54.203Z,91.10
2018-02-01T19:40:21.707Z,91.40
2018-02-01T19:42:49.192Z,91.30
2018-02-01T19:45:16.679Z,91.00
2018-02-01T19:47:44.186Z,91.00
2018-02-01T19:50:12.151Z,91.10
2018-02-01T19:52:40.049Z,91.00
2018-02-01T19:55:07.572Z,91.00
2018-02-01T19:57:35.173Z,91.10
2018-02-01T20:00:02.673Z,91.30
2018-02-01T20:02:30.166Z,91.40
2018-02-01T20:04:57.797Z,91.40
2018-02-01T20:07:25.328Z,91.30
2018-02-01T20:09:52.921Z,91.40
2018-02-01T20:12:20.490Z,91.60
2018-02-01T20:14:47.962Z,91.30
2018-02-01T20:17:15.944Z,91.40
2018-02-01T20:19:43.827Z,91.60
2018-02-01T20:22:11.800Z,90.90
2018-02-01T20:24:39.288Z,90.90
2018-02-01T20:27:07.182Z,90.70
2018-02-01T20:29:34.764Z,90.70
2018-02-01T20:32:02.301Z,90.90
2018-02-01T20:34:30.170Z,90.10
2018-02-01T20:36:57.663Z,90.10
2018-02-01T20:39:25.244Z,90.00
2018-02-01T20:41:52.795Z,89.90
2018-02-01T20:44:20.708Z,90.20
2018-02-01T20:46:48.212Z,90.20
2018-02-01T20:49:15.695Z,90.60
2018-02-01T20:51:43.300Z,90.40
2018-02-01T20:54:11.201Z,90.20
2018-02-01T20:56:38.704Z,90.20
2018-02-01T20:59:06.178Z,90.00
2018-02-01T21:01:33.680Z,90.00
2018-02-01T21:04:01.167Z,90.30
2018-02-01T21:06:28.675Z,90.20
2018-02-01T21:08:56.170Z,90.00
2018-02-01T21:11:23.763Z,90.50
2018-02-01T21:13:51.316Z,90.00
2018-02-01T21:16:18.808Z,94.40
2018-02-01T21:18:46.713Z,86.60
2018-02-01T21:21:14.276Z,86.60
2018-02-01T21:23:42.239Z,87.60
2018-02-01T21:26:09.727Z,87.60
2018-02-01T21:28:37.624Z,88.80
2018-02-01T21:31:05.121Z,88.80
2018-02-01T21:33:32.628Z,88.90
2018-02-01T21:36:00.113Z,89.10
2018-02-01T21:38:28.070Z,88.80
2018-02-01T21:40:55.546Z,88.80
2018-02-01T21:43:23.045Z,89.20
2018-02-01T21:45:50.602Z,89.50
2018-02-01T21:48:18.576Z,90.10
2018-02-01T21:50:46.174Z,90.10
2018-02-01T21:53:13.672Z,90.10
2018-02-01T21:55:41.152Z,90.20
2018-02-01T21:58:08.648Z,90.10
2018-02-01T22:00:36.135Z,89.60
2018-02-01T22:03:04.029Z,89.70
2018-02-01T22:05:31.988Z,89.70
2018-02-01T22:07:59.486Z,89.70
2018-02-01T22:10:27.027Z,89.50
2018-02-01T22:12:54.530Z,90.00
2018-02-01T22:15:22.076Z,90.00
2018-02-01T22:17:49.576Z,89.40
2018-02-01T22:20:17.083Z,89.70
2018-02-01T22:22:44.567Z,89.70
2018-02-01T22:25:12.051Z,89.70
2018-02-01T22:27:39.540Z,90.00
2018-02-01T22:30:07.436Z,90.00
2018-02-01T22:32:34.916Z,90.00
2018-02-01T22:35:02.417Z,89.70
2018-02-01T22:37:29.919Z,89.50
2018-02-01T22:39:57.492Z,89.70
2018-02-01T22:42:25.068Z,90.00
2018-02-01T22:44:53.044Z,90.00
2018-02-01T22:47:20.528Z,90.00
2018-02-01T22:49:48.499Z,90.20
2018-02-01T22:52:16.380Z,90.20
2018-02-01T22:54:43.871Z,90.20
2018-02-01T22:57:11.747Z,90.10
2018-02-01T22:59:39.643Z,90.60
2018-02-01T23:02:07.124Z,90.70
2018-02-01T23:04:34.628Z,90.50
2018-02-01T23:07:02.111Z,90.60
2018-02-01T23:09:29.602Z,90.60
2018-02-01T23:11:57.474Z,90.90
2018-02-01T23:14:25.368Z,90.40
2018-02-01T23:16:53.326Z,90.50
2018-02-01T23:19:20.825Z,90.50
2018-02-01T23:21:48.371Z,90.00
2018-02-01T23:24:15.914Z,89.50
2018-02-01T23:26:43.397Z,89.70
2018-02-01T23:29:10.908Z,89.50
2018-02-01T23:31:38.783Z,89.60
2018-02-01T23:34:06.676Z,89.80
2018-02-01T23:36:34.156Z,89.80
2018-02-01T23:39:01.660Z,89.70
2018-02-01T23:41:29.969Z,89.70
2018-02-01T23:43:57.551Z,90.10
2018-02-01T23:46:25.532Z,89.80
2018-02-01T23:48:53.512Z,89.90
2018-02-01T23:51:21.088Z,89.90
2018-02-01T23:53:48.993Z,89.60
2018-02-01T23:56:16.472Z,89.60
2018-02-01T23:58:44.008Z,89.60
